Time;durP1;ratioP1;P1;durP2;ratioP2;P2;SDS_P1;SDS_P2;PMS_P1;PMS_P2;Temp;Humidity;BMP_temperature;BMP_pressure;BME280_temperature;BME280_humidity;BME280_pressure;Samples;Min_cycle;Max_cycle;Signal;HPM_P1;HPM_P2
2021/11/09 00:02:22;;;;;;;43.75;22.73;;;;;;;11.56;100.00;97840.97;4998513;28;20033;-85
2021/11/09 00:04:56;;;;;;;51.30;22.15;;;;;;;11.62;100.00;97862.03;5014336;28;20410;-85
2021/11/09 00:09:59;;;;;;;41.45;21.92;;;;;;;11.54;100.00;97845.56;5011850;28;20034;-85
2021/11/09 00:12:32;;;;;;;43.95;21.98;;;;;;;11.60;100.00;97848.72;5008458;28;20034;-86
2021/11/09 00:15:04;;;;;;;47.92;21.13;;;;;;;11.62;100.00;97824.53;4998523;28;20033;-87
2021/11/09 00:17:30;;;;;;;37.25;19.83;;;;;;;11.68;100.00;97825.03;5014871;28;20563;-84
2021/11/09 00:19:56;;;;;;;37.13;19.15;;;;;;;11.77;100.00;97834.34;5014924;28;20034;-84
2021/11/09 00:22:24;;;;;;;39.38;19.08;;;;;;;11.84;100.00;97843.72;5015127;28;20033;-85
2021/11/09 00:24:50;;;;;;;33.60;18.83;;;;;;;11.78;100.00;97817.31;4998781;28;20125;-86
2021/11/09 00:27:16;;;;;;;33.50;18.73;;;;;;;11.85;100.00;97819.50;5005669;28;20034;-86
2021/11/09 00:29:42;;;;;;;34.92;19.25;;;;;;;11.81;100.00;97827.84;4997854;28;20053;-85
2021/11/09 00:32:08;;;;;;;38.20;19.40;;;;;;;11.75;100.00;97822.84;5011594;28;20041;-86
2021/11/09 00:34:35;;;;;;;36.78;19.08;;;;;;;11.75;100.00;97825.53;4997647;28;20467;-85
2021/11/09 00:37:02;;;;;;;32.92;18.77;;;;;;;11.80;100.00;97828.78;4997684;28;20103;-86
2021/11/09 00:39:27;;;;;;;31.38;17.88;;;;;;;11.72;100.00;97823.88;5014018;28;20029;-86
2021/11/09 00:41:53;;;;;;;34.83;18.40;;;;;;;11.73;100.00;97839.00;4994385;28;20418;-84
2021/11/09 00:44:19;;;;;;;35.85;18.75;;;;;;;11.83;100.00;97847.34;5012537;28;20100;-85
2021/11/09 00:46:44;;;;;;;32.40;17.65;;;;;;;11.86;100.00;97839.97;4997757;28;20132;-85
2021/11/09 00:49:10;;;;;;;34.42;19.25;;;;;;;11.91;100.00;97843.22;5002700;28;20060;-86
2021/11/09 00:51:36;;;;;;;34.17;18.10;;;;;;;11.78;100.00;97834.22;5000876;28;20029;-84
2021/11/09 00:54:03;;;;;;;34.95;18.50;;;;;;;11.89;100.00;97844.28;5020997;28;20056;-85
2021/11/09 00:56:30;;;;;;;32.83;19.30;;;;;;;11.83;100.00;97825.91;5000692;28;20022;-85
2021/11/09 00:58:57;;;;;;;32.92;18.75;;;;;;;11.84;100.00;97822.28;5000950;28;20033;-85
2021/11/09 01:01:23;;;;;;;41.95;19.83;;;;;;;11.88;100.00;97842.56;5017122;28;20033;-85
2021/11/09 01:03:48;;;;;;;34.95;18.75;;;;;;;11.76;100.00;97819.19;4997188;28;20044;-87
2021/11/09 01:06:14;;;;;;;33.97;18.50;;;;;;;11.82;100.00;97832.22;4997189;28;20033;-86
2021/11/09 01:08:40;;;;;;;33.33;18.50;;;;;;;11.77;100.00;97819.13;4997862;28;20030;-85
2021/11/09 01:11:06;;;;;;;35.72;19.50;;;;;;;11.85;100.00;97827.53;4997402;28;20059;-86
2021/11/09 01:13:31;;;;;;;33.03;17.80;;;;;;;11.89;100.00;97830.88;5023315;28;20037;-84
2021/11/09 01:15:58;;;;;;;32.47;18.40;;;;;;;11.98;100.00;97843.72;5015872;28;20031;-85
2021/11/09 01:18:33;;;;;;;29.75;17.00;;;;;;;11.99;100.00;97839.22;4985223;28;20041;-85
2021/11/09 01:21:00;;;;;;;37.33;20.02;;;;;;;11.94;100.00;97847.53;5016917;28;20021;-84
2021/11/09 01:23:26;;;;;;;34.22;18.95;;;;;;;11.77;100.00;97832.53;5033266;28;20017;-86
2021/11/09 01:25:52;;;;;;;37.45;19.63;;;;;;;11.91;100.00;97853.94;5000476;28;20053;-86
2021/11/09 01:28:18;;;;;;;34.85;19.45;;;;;;;12.00;100.00;97857.03;5010279;28;20120;-85
2021/11/09 01:30:44;;;;;;;36.28;19.90;;;;;;;11.90;100.00;97852.22;5000462;28;20025;-84
2021/11/09 01:33:10;;;;;;;35.00;20.23;;;;;;;11.78;100.00;97846.78;5016589;28;20029;-84
2021/11/09 01:35:36;;;;;;;38.67;19.63;;;;;;;11.92;100.00;97853.00;4999558;28;20022;-84
2021/11/09 01:38:02;;;;;;;36.33;19.10;;;;;;;11.99;100.00;97850.81;5016199;28;20116;-85
2021/11/09 01:40:28;;;;;;;37.35;19.23;;;;;;;12.04;100.00;97848.69;4991701;28;20056;-85
2021/11/09 01:42:55;;;;;;;31.83;18.48;;;;;;;12.12;100.00;97849.06;5003928;28;20026;-84
2021/11/09 01:45:24;;;;;;;39.10;19.33;;;;;;;12.13;100.00;97844.56;5012397;28;20464;-85
2021/11/09 01:47:50;;;;;;;34.67;18.38;;;;;;;12.19;100.00;97852.22;5016272;28;20025;-85
2021/11/09 01:50:20;;;;;;;35.63;18.30;;;;;;;12.11;100.00;97843.81;4999362;28;20195;-84
2021/11/09 01:52:45;;;;;;;49.35;24.42;;;;;;;12.23;100.00;97859.97;5032319;28;20031;-85
2021/11/09 01:55:13;;;;;;;42.95;21.92;;;;;;;12.22;100.00;97858.25;5016166;28;20025;-86
2021/11/09 01:57:39;;;;;;;39.35;20.80;;;;;;;12.27;100.00;97858.84;5015782;28;20033;-85
2021/11/09 02:00:10;;;;;;;34.70;19.35;;;;;;;12.25;100.00;97860.72;5016003;28;20164;-86
2021/11/09 02:02:36;;;;;;;33.88;19.50;;;;;;;12.26;100.00;97861.59;5015295;28;20029;-84
2021/11/09 02:05:02;;;;;;;35.10;19.15;;;;;;;12.29;100.00;97864.94;4996067;28;20444;-84
2021/11/09 02:07:27;;;;;;;35.30;19.30;;;;;;;12.28;100.00;97868.59;4986224;28;20436;-85
2021/11/09 02:09:53;;;;;;;40.17;20.20;;;;;;;12.40;100.00;97883.91;5014487;28;20041;-86
2021/11/09 02:12:19;;;;;;;38.90;19.55;;;;;;;12.54;100.00;97903.63;5015785;28;20045;-85
2021/11/09 02:14:44;;;;;;;37.92;20.38;;;;;;;12.52;100.00;97897.50;5032278;28;20031;-86
2021/11/09 02:17:11;;;;;;;36.47;20.65;;;;;;;12.53;100.00;97897.38;5015960;28;20029;-84
2021/11/09 02:19:38;;;;;;;35.20;19.40;;;;;;;12.48;100.00;97892.34;5015665;28;20040;-84
2021/11/09 02:22:04;;;;;;;36.67;19.13;;;;;;;12.50;100.00;97901.13;4999248;28;20028;-84
2021/11/09 02:24:29;;;;;;;31.80;18.65;;;;;;;12.54;100.00;97900.94;4999493;28;20564;-86
2021/11/09 02:26:55;;;;;;;32.42;18.60;;;;;;;12.52;100.00;97905.56;4998635;28;20033;-86
2021/11/09 02:29:21;;;;;;;34.90;18.67;;;;;;;12.43;100.00;97894.44;5027166;28;20026;-86
2021/11/09 02:31:46;;;;;;;35.50;18.85;;;;;;;12.38;100.00;97901.91;5012177;28;20172;-86
2021/11/09 02:34:12;;;;;;;35.10;18.17;;;;;;;12.46;100.00;97898.72;5028745;28;20508;-84
2021/11/09 02:36:37;;;;;;;38.50;18.73;;;;;;;12.48;100.00;97900.38;5024229;28;20025;-85
2021/11/09 02:39:03;;;;;;;32.45;18.85;;;;;;;12.47;100.00;97892.41;5000886;28;20091;-85
2021/11/09 02:41:29;;;;;;;38.65;18.27;;;;;;;12.47;100.00;97890.59;4998584;28;20503;-85
2021/11/09 02:43:57;;;;;;;35.08;17.80;;;;;;;12.57;100.00;97895.38;5031616;28;20029;-84
2021/11/09 02:49:11;;;;;;;42.75;18.60;;;;;;;12.50;100.00;97879.66;5011983;28;20026;-85
2021/11/09 02:51:42;;;;;;;34.85;17.90;;;;;;;12.57;100.00;97890.00;4997028;28;20505;-86
2021/11/09 02:54:19;;;;;;;30.63;17.00;;;;;;;12.57;100.00;97898.94;5004621;28;20041;-84
2021/11/09 03:07:08;;;;;;;32.78;18.08;;;;;;;12.35;100.00;97888.72;5032063;28;20084;-85
2021/11/09 03:12:01;;;;;;;35.55;19.95;;;;;;;12.41;100.00;97907.09;5031521;28;20029;-85
2021/11/09 03:14:27;;;;;;;46.13;21.25;;;;;;;12.33;100.00;97898.69;4999405;28;20112;-85
2021/11/09 03:16:55;;;;;;;36.20;20.67;;;;;;;12.50;100.00;97901.13;5015231;28;20034;-85
2021/11/09 03:46:31;;;;;;;37.90;19.08;;;;;;;12.52;100.00;97889.47;5035501;28;20494;-86
2021/11/09 03:48:57;;;;;;;35.42;18.75;;;;;;;12.47;100.00;97869.13;5018055;28;20050;-87
2021/11/09 03:51:24;;;;;;;43.97;20.17;;;;;;;12.34;100.00;97856.59;5018281;28;20030;-87
2021/11/09 03:53:50;;;;;;;35.78;18.98;;;;;;;12.42;100.00;97884.69;5001883;28;20026;-85
2021/11/09 03:56:22;;;;;;;63.72;24.75;;;;;;;12.39;100.00;97879.50;5014524;28;20159;-87
2021/11/09 03:58:49;;;;;;;36.22;19.88;;;;;;;12.30;100.00;97872.06;5005338;28;20529;-86
2021/11/09 04:01:21;;;;;;;38.05;18.77;;;;;;;12.30;100.00;97879.22;5018208;28;20037;-87
2021/11/09 04:04:13;;;;;;;30.10;16.92;;;;;;;12.32;100.00;97888.91;5002584;28;20112;-86
2021/11/09 04:06:38;;;;;;;50.85;23.33;;;;;;;12.37;100.00;97900.19;5020655;28;20021;-86
2021/11/09 04:09:25;;;;;;;46.05;21.77;;;;;;;12.42;100.00;97902.59;5030033;28;20124;-86
2021/11/09 04:12:09;;;;;;;41.67;21.55;;;;;;;12.52;100.00;97911.75;5018030;28;20033;-85
2021/11/09 04:14:42;;;;;;;46.58;23.17;;;;;;;12.46;100.00;97904.09;5017710;28;20427;-85
2021/11/09 04:19:43;;;;;;;45.72;24.70;;;;;;;12.45;100.00;97902.41;5026708;28;20104;-86
2021/11/09 05:02:41;;;;;;;48.58;20.33;;;;;;;12.33;100.00;97897.81;5000029;28;20069;-86
2021/11/09 05:10:35;;;;;;;39.30;22.23;;;;;;;12.04;100.00;97890.72;5033177;28;20036;-86
2021/11/09 05:13:01;;;;;;;46.88;23.02;;;;;;;12.05;100.00;97897.81;4996867;28;20026;-85
2021/11/09 05:15:27;;;;;;;44.33;22.15;;;;;;;12.15;100.00;97905.19;4988935;28;20060;-86
2021/11/09 05:17:53;;;;;;;55.78;22.63;;;;;;;12.18;100.00;97910.34;5016730;28;20065;-86
2021/11/09 05:20:21;;;;;;;43.42;21.77;;;;;;;12.21;100.00;97910.16;5017837;28;20031;-86
2021/11/09 05:22:47;;;;;;;38.72;21.02;;;;;;;12.18;100.00;97913.03;5016547;28;20061;-87
2021/11/09 05:25:13;;;;;;;46.25;22.55;;;;;;;12.14;100.00;97907.97;5013834;28;20496;-85
2021/11/09 05:27:39;;;;;;;36.42;20.77;;;;;;;12.32;100.00;97937.19;5029907;28;20048;-86
2021/11/09 05:30:07;;;;;;;45.33;23.02;;;;;;;12.21;100.00;97931.59;4995808;28;20025;-87
2021/11/09 05:32:33;;;;;;;48.65;22.95;;;;;;;12.31;100.00;97938.13;5009621;28;20037;-84
2021/11/09 05:34:59;;;;;;;40.22;20.83;;;;;;;12.29;100.00;97934.69;5033412;28;20029;-87
2021/11/09 05:37:30;;;;;;;37.45;20.33;;;;;;;12.25;100.00;97962.66;5006005;28;20067;-86
2021/11/09 05:39:58;;;;;;;35.25;19.98;;;;;;;12.18;100.00;97947.06;5017106;28;20072;-86
2021/11/09 05:42:54;;;;;;;37.40;20.70;;;;;;;12.00;100.00;97922.22;5016614;28;20103;-93
2021/11/09 05:45:20;;;;;;;33.80;20.25;;;;;;;11.99;100.00;97936.59;4990134;28;20178;-90
2021/11/09 05:47:46;;;;;;;41.38;21.48;;;;;;;11.88;100.00;97949.78;5017438;28;20033;-90
2021/11/09 05:50:12;;;;;;;41.03;19.13;;;;;;;12.07;100.00;97976.34;5017076;28;20052;-88
2021/11/09 05:52:37;;;;;;;37.10;19.83;;;;;;;12.03;100.00;97980.19;5000899;28;20056;-88
2021/11/09 05:55:04;;;;;;;30.55;15.90;;;;;;;12.04;100.00;97980.06;5015540;28;20033;-87
2021/11/09 05:57:30;;;;;;;28.50;16.45;;;;;;;12.15;100.00;98004.41;4996677;28;20030;-88
2021/11/09 05:59:56;;;;;;;26.00;15.05;;;;;;;12.16;100.00;97987.34;4981451;28;20432;-89
2021/11/09 06:02:22;;;;;;;30.52;16.67;;;;;;;12.23;100.00;98002.13;5010688;28;20523;-75
2021/11/09 06:08:33;;;;;;;32.72;19.25;;;;;;;11.82;100.00;97934.06;5031955;28;20045;-88
2021/11/09 06:10:59;;;;;;;32.78;17.98;;;;;;;12.00;100.00;97980.38;5002261;28;20493;-77
2021/11/09 06:13:25;;;;;;;33.47;17.17;;;;;;;12.24;100.00;98005.69;5030507;28;20029;-82
2021/11/09 06:15:50;;;;;;;31.13;17.83;;;;;;;12.30;100.00;98024.94;5016779;28;20480;-86
2021/11/09 06:18:16;;;;;;;51.92;27.20;;;;;;;12.33;100.00;98053.41;5019022;28;20108;-87
2021/11/09 06:20:47;;;;;;;33.30;18.65;;;;;;;12.38;100.00;98062.88;5015009;28;20087;-86
2021/11/09 06:23:13;;;;;;;30.52;18.05;;;;;;;12.59;100.00;98075.94;5014990;28;20032;-84
2021/11/09 06:25:39;;;;;;;47.85;20.08;;;;;;;12.53;100.00;98044.97;5014651;28;20026;-86
2021/11/09 06:28:06;;;;;;;39.00;19.35;;;;;;;12.71;100.00;98077.84;4997931;28;20036;-86
2021/11/09 06:30:32;;;;;;;34.50;17.50;;;;;;;12.55;100.00;98063.69;4998167;28;20072;-85
2021/11/09 06:32:58;;;;;;;28.63;14.63;;;;;;;12.68;100.00;98070.88;5014748;28;20060;-87
2021/11/09 06:35:24;;;;;;;38.42;19.17;;;;;;;12.54;100.00;98062.81;4998246;28;20025;-86
2021/11/09 06:37:49;;;;;;;31.95;17.45;;;;;;;12.63;100.00;98078.34;5014833;28;20067;-85
2021/11/09 06:40:15;;;;;;;28.40;15.23;;;;;;;12.69;100.00;98066.38;5015290;28;20121;-85
2021/11/09 06:42:42;;;;;;;38.95;15.50;;;;;;;12.62;100.00;98049.78;5014548;28;20144;-87
2021/11/09 06:45:07;;;;;;;29.02;15.07;;;;;;;12.70;100.00;98041.25;5009335;28;20034;-75
2021/11/09 06:47:33;;;;;;;28.40;15.57;;;;;;;12.94;100.00;98075.47;5030473;28;20029;-78
2021/11/09 06:49:59;;;;;;;26.58;13.77;;;;;;;12.96;100.00;98078.06;5010329;28;20098;-79
2021/11/09 06:52:25;;;;;;;33.75;14.00;;;;;;;12.89;100.00;98069.53;5011711;28;20466;-76
2021/11/09 06:54:50;;;;;;;35.35;14.73;;;;;;;12.89;100.00;98080.25;5012587;28;20030;-75
2021/11/09 06:57:16;;;;;;;27.98;12.48;;;;;;;12.83;100.00;98074.41;5012742;28;20484;-75
2021/11/09 06:59:42;;;;;;;27.67;12.90;;;;;;;12.71;100.00;98064.44;5030210;28;20037;-75
2021/11/09 07:02:07;;;;;;;23.50;11.43;;;;;;;12.63;99.37;98075.66;5018283;28;20021;-74
2021/11/09 07:04:34;;;;;;;19.52;11.57;;;;;;;12.57;100.00;98077.84;5012679;28;20511;-75
2021/11/09 07:07:00;;;;;;;20.88;11.32;;;;;;;12.52;100.00;98084.38;5010040;28;20057;-73
2021/11/09 07:09:26;;;;;;;19.17;11.43;;;;;;;12.46;100.00;98071.31;5012632;28;20053;-75
2021/11/09 07:11:52;;;;;;;17.92;11.32;;;;;;;12.59;100.00;98089.34;5029289;28;20029;-74
2021/11/09 07:14:18;;;;;;;26.45;11.13;;;;;;;12.63;100.00;98085.53;5032643;28;20033;-74
2021/11/09 07:16:45;;;;;;;25.38;11.70;;;;;;;12.62;100.00;98065.00;5008488;28;20030;-74
2021/11/09 07:19:12;;;;;;;17.33;10.77;;;;;;;12.60;100.00;98069.63;5033016;28;20403;-74
2021/11/09 07:21:38;;;;;;;19.75;11.68;;;;;;;12.63;100.00;98069.44;5026737;28;20040;-74
2021/11/09 07:24:04;;;;;;;20.50;11.50;;;;;;;12.61;100.00;98074.03;5016301;28;20405;-75
2021/11/09 07:26:29;;;;;;;20.48;10.73;;;;;;;12.46;100.00;98060.59;5033164;28;20470;-75
2021/11/09 07:28:58;;;;;;;17.88;10.27;;;;;;;12.42;100.00;98044.78;5008078;28;20033;-74
2021/11/09 07:31:28;;;;;;;20.10;10.35;;;;;;;12.47;100.00;98056.97;5020625;28;20509;-76
2021/11/09 07:33:54;;;;;;;24.90;11.80;;;;;;;12.66;100.00;98093.41;5024535;28;20026;-75
2021/11/09 07:36:20;;;;;;;34.88;17.83;;;;;;;12.57;100.00;98092.16;5032327;28;20032;-77
2021/11/09 07:38:46;;;;;;;32.67;17.17;;;;;;;12.63;100.00;98099.81;5016096;28;20095;-75
2021/11/09 07:41:12;;;;;;;32.90;17.05;;;;;;;12.59;100.00;98103.63;4999855;28;20038;-77
2021/11/09 07:43:38;;;;;;;28.85;17.08;;;;;;;12.71;99.40;98113.63;5011789;28;20029;-77
2021/11/09 07:46:04;;;;;;;31.27;17.63;;;;;;;12.79;99.00;98129.28;5032393;28;20108;-76
2021/11/09 07:48:29;;;;;;;24.40;11.82;;;;;;;12.61;98.77;98112.47;5015623;28;20040;-78
2021/11/09 07:50:55;;;;;;;21.33;11.90;;;;;;;12.79;98.00;98140.88;5015401;28;20107;-77
2021/11/09 07:53:22;;;;;;;43.47;20.15;;;;;;;12.73;97.89;98132.34;5008644;28;20401;-76
2021/11/09 07:55:52;;;;;;;37.63;20.55;;;;;;;12.56;99.61;98156.63;5032299;28;20044;-77
2021/11/09 07:58:29;;;;;;;36.33;17.98;;;;;;;12.60;98.38;98171.59;5015603;28;20033;-77
2021/11/09 08:01:06;;;;;;;38.92;19.27;;;;;;;12.73;97.79;98191.38;5028229;28;20444;-77
2021/11/09 08:03:37;;;;;;;41.80;20.75;;;;;;;12.47;99.34;98191.13;5029321;28;20036;-76
2021/11/09 08:06:26;;;;;;;81.70;35.63;;;;;;;12.40;99.73;98204.97;5003698;28;20025;-75
2021/11/09 08:11:29;;;;;;;37.42;18.23;;;;;;;12.42;100.00;98213.81;5017500;28;20494;-75
2021/11/09 08:13:55;;;;;;;32.65;18.35;;;;;;;12.45;100.00;98221.69;5015177;28;20559;-75
2021/11/09 08:16:21;;;;;;;48.67;21.80;;;;;;;12.52;100.00;98240.97;5025332;28;20025;-75
2021/11/09 08:18:46;;;;;;;52.58;20.85;;;;;;;12.52;100.00;98240.97;5031699;28;20029;-74
2021/11/09 08:21:13;;;;;;;31.13;14.13;;;;;;;12.61;100.00;98257.41;5033109;28;20071;-77
2021/11/09 08:23:39;;;;;;;28.20;14.02;;;;;;;12.41;100.00;98255.88;5031704;28;20025;-76
2021/11/09 08:26:04;;;;;;;29.98;15.38;;;;;;;12.35;100.00;98266.97;4998470;28;20393;-75
2021/11/09 08:28:31;;;;;;;29.88;13.43;;;;;;;12.31;100.00;98253.81;5014805;28;20112;-75
2021/11/09 08:31:03;;;;;;;23.80;12.25;;;;;;;12.46;100.00;98264.50;5031585;28;20499;-75
2021/11/09 08:33:30;;;;;;;25.25;12.05;;;;;;;12.29;100.00;98267.31;5031693;28;20029;-76
2021/11/09 08:35:57;;;;;;;23.52;11.25;;;;;;;12.24;100.00;98280.09;5014835;28;20032;-74
2021/11/09 08:38:23;;;;;;;26.30;11.70;;;;;;;11.86;100.00;98268.00;5014828;28;20027;-75
2021/11/09 08:40:51;;;;;;;21.85;11.85;;;;;;;12.07;100.00;98282.91;5031030;28;20021;-74
2021/11/09 08:43:19;;;;;;;27.05;11.82;;;;;;;12.20;100.00;98286.63;5014749;28;20057;-75
2021/11/09 08:45:58;;;;;;;25.33;11.18;;;;;;;11.91;100.00;98290.06;5032497;28;20020;-74
2021/11/09 08:48:26;;;;;;;24.15;10.15;;;;;;;12.13;100.00;98301.31;5014474;28;20036;-75
2021/11/09 08:50:54;;;;;;;24.83;11.80;;;;;;;12.15;100.00;98295.88;5030955;28;20061;-75
2021/11/09 08:53:27;;;;;;;33.20;13.23;;;;;;;12.09;100.00;98275.63;4998336;28;20036;-75
2021/11/09 09:01:04;;;;;;;31.80;16.00;;;;;;;12.25;100.00;98270.25;5031127;28;20443;-75
2021/11/09 09:04:11;;;;;;;29.35;14.00;;;;;;;12.26;100.00;98278.22;5025604;28;20029;-76
2021/11/09 09:04:20;;;;;;;27.00;16.60;;;;;;;12.17;100.00;98269.84;5018299;28;20099;-76
2021/11/09 09:06:49;;;;;;;33.45;16.48;;;;;;;12.17;100.00;98284.13;5031090;28;20477;-76
2021/11/09 09:09:16;;;;;;;22.90;12.65;;;;;;;12.17;100.00;98289.47;5014148;28;20025;-77
2021/11/09 09:11:43;;;;;;;36.33;22.42;;;;;;;12.14;100.00;98270.88;5014527;28;20560;-76
2021/11/09 09:14:10;;;;;;;34.67;17.05;;;;;;;11.92;100.00;98273.03;5014267;28;20042;-75
2021/11/09 09:16:38;;;;;;;31.15;15.98;;;;;;;11.86;100.00;98268.88;5030845;28;20503;-76
2021/11/09 09:19:05;;;;;;;32.15;14.48;;;;;;;11.86;100.00;98287.66;5003981;28;20409;-76
2021/11/09 09:21:42;;;;;;;33.17;14.88;;;;;;;12.01;100.00;98311.88;5014126;28;20048;-75
2021/11/09 09:24:27;;;;;;;26.65;13.68;;;;;;;11.92;100.00;98289.13;5030507;28;20480;-74
2021/11/09 09:27:04;;;;;;;26.05;13.43;;;;;;;12.00;100.00;98311.00;5016925;28;20448;-74
2021/11/09 09:52:09;;;;;;;31.07;13.70;;;;;;;12.27;100.00;98298.75;5000661;28;20070;-76
2021/11/09 09:56:57;;;;;;;40.33;19.80;;;;;;;12.02;100.00;98322.53;4996249;28;20030;-75
2021/11/09 09:59:25;;;;;;;44.92;22.48;;;;;;;11.95;100.00;98334.53;5010183;28;20099;-75
2021/11/09 10:02:13;;;;;;;32.58;14.32;;;;;;;11.96;100.00;98344.31;4994112;28;20034;-74
2021/11/09 10:04:45;;;;;;;29.42;15.32;;;;;;;11.93;100.00;98345.31;5010545;28;20033;-76
2021/11/09 10:07:13;;;;;;;28.98;17.52;;;;;;;11.97;100.00;98335.28;4999813;28;20116;-74
2021/11/09 10:09:46;;;;;;;28.02;15.15;;;;;;;11.86;100.00;98327.84;5005103;28;20039;-86
2021/11/09 10:12:22;;;;;;;33.55;15.23;;;;;;;11.83;100.00;98333.38;5014986;28;20093;-85
2021/11/09 10:14:50;;;;;;;32.17;15.65;;;;;;;11.81;100.00;98347.81;5028856;28;20116;-75
2021/11/09 10:17:19;;;;;;;33.58;16.67;;;;;;;11.87;100.00;98371.63;5002354;28;20143;-75
2021/11/09 10:19:44;;;;;;;34.15;16.65;;;;;;;11.90;100.00;98376.81;5027250;28;20037;-73
2021/11/09 10:22:29;;;;;;;43.45;22.20;;;;;;;11.89;100.00;98384.00;5027881;28;20174;-74
2021/11/09 10:25:02;;;;;;;43.53;20.60;;;;;;;11.95;100.00;98390.81;5011465;28;20369;-73
2021/11/09 10:27:30;;;;;;;48.58;20.08;;;;;;;11.90;100.00;98388.38;5007918;28;20413;-74
2021/11/09 10:29:58;;;;;;;36.47;18.80;;;;;;;11.79;100.00;98369.34;5001515;28;20053;-74
2021/11/09 10:32:29;;;;;;;52.95;24.60;;;;;;;11.85;100.00;98378.84;5010848;28;20485;-74
2021/11/09 10:34:57;;;;;;;59.60;28.33;;;;;;;11.76;100.00;98364.13;5007182;28;20091;-74
2021/11/09 10:37:26;;;;;;;43.38;22.02;;;;;;;11.82;100.00;98379.91;5003235;28;20033;-74
2021/11/09 10:39:54;;;;;;;29.95;15.45;;;;;;;11.89;100.00;98385.78;4994260;28;20556;-73
2021/11/09 10:42:23;;;;;;;45.50;20.98;;;;;;;11.88;100.00;98381.38;5027059;28;20499;-73
2021/11/09 10:45:02;;;;;;;45.97;23.92;;;;;;;11.99;100.00;98402.25;5010768;28;20064;-73
2021/11/09 10:47:29;;;;;;;49.88;25.45;;;;;;;11.82;100.00;98400.47;5013319;28;20033;-74
2021/11/09 10:49:59;;;;;;;51.65;23.88;;;;;;;11.64;100.00;98396.03;5031222;28;20428;-74
2021/11/09 10:52:30;;;;;;;45.67;22.70;;;;;;;11.49;100.00;98408.44;5032372;28;20025;-75
2021/11/09 10:55:02;;;;;;;33.97;17.95;;;;;;;11.34;100.00;98419.94;5015242;28;20018;-74
2021/11/09 10:57:34;;;;;;;35.85;18.38;;;;;;;11.19;100.00;98435.00;5014473;28;20033;-74
2021/11/09 11:00:14;;;;;;;24.35;14.85;;;;;;;11.04;100.00;98426.84;5033138;28;20033;-73
2021/11/09 11:05:23;;;;;;;28.75;15.32;;;;;;;10.96;100.00;98423.66;5017299;28;20036;-73
2021/11/09 11:07:56;;;;;;;41.22;21.67;;;;;;;11.00;100.00;98434.16;5014753;28;20033;-73
2021/11/09 11:10:28;;;;;;;31.42;18.77;;;;;;;10.85;100.00;98450.97;5019766;28;20029;-73
2021/11/09 11:13:23;;;;;;;36.70;17.98;;;;;;;10.83;100.00;98439.47;4993191;28;20175;-72
2021/11/09 11:16:10;;;;;;;41.88;20.02;;;;;;;11.05;100.00;98441.94;4987797;28;20048;-74
2021/11/09 11:18:40;;;;;;;34.22;18.85;;;;;;;11.14;100.00;98431.66;5028053;28;20447;-73
2021/11/09 11:21:11;;;;;;;36.40;17.40;;;;;;;11.27;100.00;98440.81;5010033;28;20032;-72
2021/11/09 11:23:39;;;;;;;36.97;17.13;;;;;;;11.16;100.00;98453.03;5031845;28;20052;-74
2021/11/09 11:26:05;;;;;;;32.05;18.27;;;;;;;11.13;100.00;98455.84;5032286;28;20099;-73
2021/11/09 11:28:32;;;;;;;37.78;19.88;;;;;;;11.20;100.00;98462.59;5030716;28;20394;-73
2021/11/09 11:30:58;;;;;;;37.67;17.60;;;;;;;11.28;100.00;98460.44;5005858;28;20041;-72
2021/11/09 11:33:24;;;;;;;38.03;20.38;;;;;;;11.46;100.00;98472.03;4997559;28;20033;-72
2021/11/09 11:35:50;;;;;;;61.53;29.25;;;;;;;11.48;100.00;98480.84;5030169;28;20401;-73
2021/11/09 11:38:21;;;;;;;55.75;27.60;;;;;;;11.46;100.00;98488.97;5014392;28;20032;-73
2021/11/09 11:40:49;;;;;;;48.45;23.33;;;;;;;11.34;100.00;98498.50;5028103;28;20476;-73
2021/11/09 11:43:43;;;;;;;40.40;20.65;;;;;;;11.39;100.00;98484.88;4988502;28;20044;-74
2021/11/09 11:46:13;;;;;;;47.13;23.35;;;;;;;11.41;100.00;98491.88;5031838;28;20397;-73
2021/11/09 11:49:03;;;;;;;37.22;20.88;;;;;;;11.31;100.00;98511.19;5013910;28;20116;-75
2021/11/09 11:51:37;;;;;;;35.08;19.33;;;;;;;11.22;100.00;98509.81;5031741;28;20078;-73
2021/11/09 11:54:06;;;;;;;26.40;15.35;;;;;;;11.08;100.00;98508.75;5005977;28;20044;-73
2021/11/09 11:56:39;;;;;;;29.65;15.65;;;;;;;11.09;100.00;98511.34;5024735;28;20029;-75
2021/11/09 11:59:08;;;;;;;;;;;;;;;11.06;100.00;98515.97;5024716;28;20508;-74
2021/11/09 12:01:44;;;;;;;22.13;11.43;;;;;;;11.05;100.00;98516.91;5030297;28;19924;-73
2021/11/09 12:04:31;;;;;;;21.75;12.30;;;;;;;11.00;100.00;98521.63;5013793;28;20033;-73
2021/11/09 12:06:57;;;;;;;25.20;14.35;;;;;;;10.93;100.00;98531.75;5010809;28;20473;-73
2021/11/09 12:09:32;;;;;;;36.05;18.60;;;;;;;10.91;100.00;98533.66;5027518;28;20032;-72
2021/11/09 12:12:16;;;;;;;23.98;13.45;;;;;;;10.88;100.00;98525.78;5021848;28;20029;-74
2021/11/09 12:14:51;;;;;;;34.65;13.07;;;;;;;10.80;100.00;98558.25;5031162;28;20504;-72
2021/11/09 12:17:36;;;;;;;29.23;12.88;;;;;;;10.76;100.00;98561.16;5030104;28;20123;-73
2021/11/09 12:20:15;;;;;;;23.33;13.20;;;;;;;10.73;100.00;98561.28;5031234;28;20028;-74
2021/11/09 12:22:52;;;;;;;26.73;13.90;;;;;;;10.68;100.00;98576.66;5029993;28;20033;-72
2021/11/09 12:25:36;;;;;;;24.20;15.52;;;;;;;10.73;100.00;98577.34;5005212;28;20095;-73
2021/11/09 12:28:06;;;;;;;28.05;15.77;;;;;;;10.58;100.00;98567.34;5016454;28;20069;-73
2021/11/09 12:30:32;;;;;;;15.43;10.05;;;;;;;10.49;100.00;98573.13;5023056;28;20040;-73
2021/11/09 12:33:11;;;;;;;19.75;11.00;;;;;;;10.45;100.00;98576.84;5031209;28;20527;-75
2021/11/09 12:35:38;;;;;;;11.60;7.88;;;;;;;10.33;100.00;98599.69;5025902;28;20489;-73
2021/11/09 12:38:09;;;;;;;15.07;9.73;;;;;;;10.29;100.00;98606.97;4994523;28;20025;-74
2021/11/09 12:40:37;;;;;;;12.43;8.32;;;;;;;10.19;100.00;98602.06;5013493;28;20504;-73
2021/11/09 12:43:07;;;;;;;16.40;9.40;;;;;;;10.12;100.00;98596.06;5010024;28;20082;-73
2021/11/09 12:45:33;;;;;;;15.65;9.82;;;;;;;10.14;100.00;98591.59;5013350;28;20021;-73
2021/11/09 12:48:08;;;;;;;17.67;10.40;;;;;;;10.06;100.00;98607.03;5025069;28;20492;-73
2021/11/09 12:50:36;;;;;;;15.13;9.32;;;;;;;10.09;100.00;98611.41;5006040;28;20049;-73
2021/11/09 12:53:09;;;;;;;15.00;9.25;;;;;;;9.97;100.00;98618.13;4996531;28;20468;-73
2021/11/09 12:55:37;;;;;;;13.57;8.60;;;;;;;9.93;100.00;98631.69;5013262;28;20009;-73
2021/11/09 12:58:21;;;;;;;15.65;8.50;;;;;;;10.00;100.00;98642.03;5016227;28;20064;-73
2021/11/09 13:01:14;;;;;;;16.15;10.57;;;;;;;10.06;100.00;98651.63;5030726;28;20030;-74
2021/11/09 13:03:48;;;;;;;14.93;8.75;;;;;;;10.05;100.00;98660.56;5026577;28;20029;-74
2021/11/09 13:06:38;;;;;;;15.57;9.70;;;;;;;9.87;100.00;98659.56;5011059;28;20100;-74
2021/11/09 13:09:21;;;;;;;16.25;9.00;;;;;;;9.80;100.00;98658.06;5012966;28;20048;-74
2021/11/09 13:12:01;;;;;;;14.48;8.82;;;;;;;9.87;100.00;98670.25;5014178;28;20857;-74
2021/11/09 13:14:33;;;;;;;14.50;8.63;;;;;;;9.91;100.00;98661.13;5012574;28;20476;-74
2021/11/09 13:16:59;;;;;;;11.90;7.80;;;;;;;9.81;100.00;98662.47;5008833;28;20051;-73
2021/11/09 13:19:35;;;;;;;20.85;11.25;;;;;;;9.93;100.00;98664.63;5010870;28;20026;-74
2021/11/09 13:22:14;;;;;;;19.25;9.70;;;;;;;9.96;100.00;98688.56;5029170;28;20441;-74
2021/11/09 13:24:43;;;;;;;15.80;9.30;;;;;;;9.82;100.00;98688.25;5007532;28;20033;-73
2021/11/09 13:27:11;;;;;;;14.50;9.00;;;;;;;9.84;100.00;98694.41;5010553;28;20025;-74
2021/11/09 13:29:46;;;;;;;56.17;11.57;;;;;;;9.84;100.00;98691.75;5012511;28;20503;-73
2021/11/09 13:32:13;;;;;;;25.40;10.68;;;;;;;9.86;100.00;98697.88;5002637;28;20076;-72
2021/11/09 13:34:40;;;;;;;18.08;9.77;;;;;;;9.90;100.00;98696.84;5028657;28;20060;-74